sensor_id;sensor_type;location;lat;lon;timestamp;P1;durP1;ratioP1;P2;durP2;ratioP2
69323;SDS011;56470;47.350;8.718;2023-08-21T00:01:35;7.95;;;4.80;;
69323;SDS011;56470;47.350;8.718;2023-08-21T00:04:01;8.53;;;5.33;;
69323;SDS011;56470;47.350;8.718;2023-08-21T00:06:26;8.07;;;5.03;;
69323;SDS011;56470;47.350;8.718;2023-08-21T00:08:51;8.00;;;5.03;;
69323;SDS011;56470;47.350;8.718;2023-08-21T00:11:17;6.77;;;4.60;;
69323;SDS011;56470;47.350;8.718;2023-08-21T00:13:42;8.10;;;4.80;;
69323;SDS011;56470;47.350;8.718;2023-08-21T00:16:09;7.53;;;5.43;;
69323;SDS011;56470;47.350;8.718;2023-08-21T00:18:36;9.43;;;5.47;;
69323;SDS011;56470;47.350;8.718;2023-08-21T00:21:01;9.70;;;5.50;;
69323;SDS011;56470;47.350;8.718;2023-08-21T00:23:26;6.63;;;4.40;;
69323;SDS011;56470;47.350;8.718;2023-08-21T00:25:52;10.30;;;4.70;;
69323;SDS011;56470;47.350;8.718;2023-08-21T00:28:17;8.60;;;5.23;;
69323;SDS011;56470;47.350;8.718;2023-08-21T00:30:42;7.97;;;5.33;;
69323;SDS011;56470;47.350;8.718;2023-08-21T00:33:07;8.23;;;4.60;;
69323;SDS011;56470;47.350;8.718;2023-08-21T00:35:33;8.90;;;4.47;;
69323;SDS011;56470;47.350;8.718;2023-08-21T00:37:58;7.43;;;5.10;;
69323;SDS011;56470;47.350;8.718;2023-08-21T00:40:23;7.20;;;5.20;;
69323;SDS011;56470;47.350;8.718;2023-08-21T00:42:49;6.95;;;4.35;;
69323;SDS011;56470;47.350;8.718;2023-08-21T00:45:14;8.63;;;5.17;;
69323;SDS011;56470;47.350;8.718;2023-08-21T00:47:39;8.30;;;5.00;;
69323;SDS011;56470;47.350;8.718;2023-08-21T00:50:05;8.27;;;5.10;;
69323;SDS011;56470;47.350;8.718;2023-08-21T00:52:32;7.73;;;5.73;;
69323;SDS011;56470;47.350;8.718;2023-08-21T00:54:59;8.00;;;5.40;;
69323;SDS011;56470;47.350;8.718;2023-08-21T00:57:25;8.53;;;5.20;;
69323;SDS011;56470;47.350;8.718;2023-08-21T00:59:51;9.18;;;5.38;;
69323;SDS011;56470;47.350;8.718;2023-08-21T01:02:16;8.85;;;5.13;;
69323;SDS011;56470;47.350;8.718;2023-08-21T01:04:44;7.50;;;5.20;;
69323;SDS011;56470;47.350;8.718;2023-08-21T01:07:09;7.05;;;5.30;;
69323;SDS011;56470;47.350;8.718;2023-08-21T01:09:54;8.10;;;5.23;;
69323;SDS011;56470;47.350;8.718;2023-08-21T01:12:37;8.40;;;5.32;;
69323;SDS011;56470;47.350;8.718;2023-08-21T01:15:15;7.93;;;5.28;;
69323;SDS011;56470;47.350;8.718;2023-08-21T01:17:41;10.37;;;5.20;;
69323;SDS011;56470;47.350;8.718;2023-08-21T01:20:08;8.63;;;4.75;;
69323;SDS011;56470;47.350;8.718;2023-08-21T01:22:38;9.15;;;5.25;;
69323;SDS011;56470;47.350;8.718;2023-08-21T01:25:05;9.77;;;4.97;;
69323;SDS011;56470;47.350;8.718;2023-08-21T01:27:31;8.68;;;4.45;;
69323;SDS011;56470;47.350;8.718;2023-08-21T01:29:57;7.15;;;4.50;;
69323;SDS011;56470;47.350;8.718;2023-08-21T01:32:31;7.88;;;5.32;;
69323;SDS011;56470;47.350;8.718;2023-08-21T01:35:02;8.73;;;5.22;;
69323;SDS011;56470;47.350;8.718;2023-08-21T01:37:29;9.73;;;5.17;;
69323;SDS011;56470;47.350;8.718;2023-08-21T01:39:57;8.35;;;4.90;;
69323;SDS011;56470;47.350;8.718;2023-08-21T01:42:23;8.05;;;4.60;;
69323;SDS011;56470;47.350;8.718;2023-08-21T01:44:48;8.87;;;4.77;;
69323;SDS011;56470;47.350;8.718;2023-08-21T01:47:13;7.20;;;4.53;;
69323;SDS011;56470;47.350;8.718;2023-08-21T01:49:39;8.20;;;4.60;;
69323;SDS011;56470;47.350;8.718;2023-08-21T01:52:04;7.67;;;4.63;;
69323;SDS011;56470;47.350;8.718;2023-08-21T01:54:29;9.23;;;5.20;;
69323;SDS011;56470;47.350;8.718;2023-08-21T01:56:55;11.00;;;4.33;;
69323;SDS011;56470;47.350;8.718;2023-08-21T01:59:21;9.57;;;4.67;;
69323;SDS011;56470;47.350;8.718;2023-08-21T02:01:48;7.95;;;4.75;;
69323;SDS011;56470;47.350;8.718;2023-08-21T02:04:13;9.23;;;5.57;;
69323;SDS011;56470;47.350;8.718;2023-08-21T02:06:38;8.77;;;5.20;;
69323;SDS011;56470;47.350;8.718;2023-08-21T02:09:04;8.17;;;4.80;;
69323;SDS011;56470;47.350;8.718;2023-08-21T02:11:29;8.30;;;5.27;;
69323;SDS011;56470;47.350;8.718;2023-08-21T02:13:54;10.47;;;5.00;;
69323;SDS011;56470;47.350;8.718;2023-08-21T02:16:19;10.67;;;4.40;;
69323;SDS011;56470;47.350;8.718;2023-08-21T02:18:46;7.63;;;4.05;;
69323;SDS011;56470;47.350;8.718;2023-08-21T02:21:12;7.80;;;5.70;;
69323;SDS011;56470;47.350;8.718;2023-08-21T02:23:37;8.35;;;5.10;;
69323;SDS011;56470;47.350;8.718;2023-08-21T02:26:03;7.97;;;4.90;;
69323;SDS011;56470;47.350;8.718;2023-08-21T02:28:28;9.90;;;5.03;;
69323;SDS011;56470;47.350;8.718;2023-08-21T02:30:53;8.43;;;5.40;;
69323;SDS011;56470;47.350;8.718;2023-08-21T02:33:19;8.77;;;5.30;;
69323;SDS011;56470;47.350;8.718;2023-08-21T02:35:44;7.90;;;5.57;;
69323;SDS011;56470;47.350;8.718;2023-08-21T02:38:09;9.35;;;5.53;;
69323;SDS011;56470;47.350;8.718;2023-08-21T02:40:35;7.10;;;4.50;;
69323;SDS011;56470;47.350;8.718;2023-08-21T02:43:00;7.40;;;4.27;;
69323;SDS011;56470;47.350;8.718;2023-08-21T02:45:26;7.27;;;4.17;;
69323;SDS011;56470;47.350;8.718;2023-08-21T02:47:51;7.57;;;5.53;;
69323;SDS011;56470;47.350;8.718;2023-08-21T02:50:16;10.10;;;5.80;;
69323;SDS011;56470;47.350;8.718;2023-08-21T02:52:42;7.72;;;5.05;;
69323;SDS011;56470;47.350;8.718;2023-08-21T02:55:07;9.30;;;4.57;;
69323;SDS011;56470;47.350;8.718;2023-08-21T02:57:33;8.27;;;5.67;;
69323;SDS011;56470;47.350;8.718;2023-08-21T02:59:58;7.97;;;5.30;;
69323;SDS011;56470;47.350;8.718;2023-08-21T03:02:23;7.70;;;5.40;;
69323;SDS011;56470;47.350;8.718;2023-08-21T03:04:49;9.63;;;4.77;;
69323;SDS011;56470;47.350;8.718;2023-08-21T03:07:15;9.63;;;5.53;;
69323;SDS011;56470;47.350;8.718;2023-08-21T03:09:40;8.60;;;5.27;;
69323;SDS011;56470;47.350;8.718;2023-08-21T03:12:06;10.00;;;5.55;;
69323;SDS011;56470;47.350;8.718;2023-08-21T03:14:33;8.48;;;5.18;;
69323;SDS011;56470;47.350;8.718;2023-08-21T03:16:59;8.27;;;5.43;;
69323;SDS011;56470;47.350;8.718;2023-08-21T03:19:24;9.43;;;5.87;;
69323;SDS011;56470;47.350;8.718;2023-08-21T03:21:49;9.07;;;5.43;;
69323;SDS011;56470;47.350;8.718;2023-08-21T03:24:14;9.60;;;5.20;;
69323;SDS011;56470;47.350;8.718;2023-08-21T03:26:40;8.30;;;5.00;;
69323;SDS011;56470;47.350;8.718;2023-08-21T03:29:05;10.50;;;5.77;;
69323;SDS011;56470;47.350;8.718;2023-08-21T03:31:31;9.00;;;6.03;;
69323;SDS011;56470;47.350;8.718;2023-08-21T03:33:56;10.57;;;5.73;;
69323;SDS011;56470;47.350;8.718;2023-08-21T03:36:22;11.10;;;5.63;;
69323;SDS011;56470;47.350;8.718;2023-08-21T03:38:56;8.10;;;5.68;;
69323;SDS011;56470;47.350;8.718;2023-08-21T03:41:22;8.77;;;5.38;;
69323;SDS011;56470;47.350;8.718;2023-08-21T03:43:47;8.63;;;5.30;;
69323;SDS011;56470;47.350;8.718;2023-08-21T03:46:12;7.87;;;5.37;;
69323;SDS011;56470;47.350;8.718;2023-08-21T03:48:38;7.30;;;5.40;;
69323;SDS011;56470;47.350;8.718;2023-08-21T03:51:03;9.43;;;5.63;;
69323;SDS011;56470;47.350;8.718;2023-08-21T03:53:28;7.93;;;5.70;;
69323;SDS011;56470;47.350;8.718;2023-08-21T03:55:54;7.80;;;5.47;;
69323;SDS011;56470;47.350;8.718;2023-08-21T03:58:19;10.13;;;5.83;;
69323;SDS011;56470;47.350;8.718;2023-08-21T04:00:45;11.63;;;5.80;;
69323;SDS011;56470;47.350;8.718;2023-08-21T04:03:10;8.20;;;6.07;;
69323;SDS011;56470;47.350;8.718;2023-08-21T04:05:35;10.10;;;5.20;;
69323;SDS011;56470;47.350;8.718;2023-08-21T04:08:02;9.48;;;5.32;;
69323;SDS011;56470;47.350;8.718;2023-08-21T04:10:27;10.33;;;5.63;;
69323;SDS011;56470;47.350;8.718;2023-08-21T04:12:52;9.73;;;5.80;;
69323;SDS011;56470;47.350;8.718;2023-08-21T04:15:18;9.37;;;5.13;;
69323;SDS011;56470;47.350;8.718;2023-08-21T04:17:43;9.23;;;6.07;;
69323;SDS011;56470;47.350;8.718;2023-08-21T04:20:08;9.87;;;5.40;;
69323;SDS011;56470;47.350;8.718;2023-08-21T04:22:34;10.95;;;5.35;;
69323;SDS011;56470;47.350;8.718;2023-08-21T04:24:59;9.17;;;5.10;;
69323;SDS011;56470;47.350;8.718;2023-08-21T04:27:25;9.23;;;6.33;;
69323;SDS011;56470;47.350;8.718;2023-08-21T04:29:50;9.43;;;6.43;;
69323;SDS011;56470;47.350;8.718;2023-08-21T04:32:15;7.68;;;5.55;;
69323;SDS011;56470;47.350;8.718;2023-08-21T04:34:41;11.80;;;6.90;;
69323;SDS011;56470;47.350;8.718;2023-08-21T04:37:06;10.10;;;5.70;;
69323;SDS011;56470;47.350;8.718;2023-08-21T04:39:31;9.80;;;5.97;;
69323;SDS011;56470;47.350;8.718;2023-08-21T04:41:57;9.17;;;6.10;;
69323;SDS011;56470;47.350;8.718;2023-08-21T04:44:22;8.10;;;5.90;;
69323;SDS011;56470;47.350;8.718;2023-08-21T04:46:47;11.67;;;5.67;;
69323;SDS011;56470;47.350;8.718;2023-08-21T04:49:15;7.85;;;6.20;;
69323;SDS011;56470;47.350;8.718;2023-08-21T04:51:40;10.07;;;5.50;;
69323;SDS011;56470;47.350;8.718;2023-08-21T04:54:05;9.53;;;5.80;;
69323;SDS011;56470;47.350;8.718;2023-08-21T04:56:31;9.87;;;6.30;;
69323;SDS011;56470;47.350;8.718;2023-08-21T04:58:56;8.63;;;5.85;;
69323;SDS011;56470;47.350;8.718;2023-08-21T05:01:21;10.70;;;5.90;;
69323;SDS011;56470;47.350;8.718;2023-08-21T05:03:46;8.97;;;5.80;;
69323;SDS011;56470;47.350;8.718;2023-08-21T05:06:12;10.67;;;5.87;;
69323;SDS011;56470;47.350;8.718;2023-08-21T05:08:37;10.50;;;6.13;;
69323;SDS011;56470;47.350;8.718;2023-08-21T05:11:02;8.97;;;6.20;;
69323;SDS011;56470;47.350;8.718;2023-08-21T05:13:28;10.07;;;6.23;;
69323;SDS011;56470;47.350;8.718;2023-08-21T05:15:54;10.90;;;5.83;;
69323;SDS011;56470;47.350;8.718;2023-08-21T05:18:21;13.02;;;6.20;;
69323;SDS011;56470;47.350;8.718;2023-08-21T05:20:47;11.15;;;5.47;;
69323;SDS011;56470;47.350;8.718;2023-08-21T05:23:14;10.93;;;5.72;;
69323;SDS011;56470;47.350;8.718;2023-08-21T05:25:39;9.23;;;6.90;;
69323;SDS011;56470;47.350;8.718;2023-08-21T05:28:05;9.68;;;6.72;;
69323;SDS011;56470;47.350;8.718;2023-08-21T05:30:31;12.23;;;6.07;;
69323;SDS011;56470;47.350;8.718;2023-08-21T05:32:56;9.63;;;5.38;;
69323;SDS011;56470;47.350;8.718;2023-08-21T05:35:21;11.30;;;6.03;;
69323;SDS011;56470;47.350;8.718;2023-08-21T05:37:47;13.37;;;5.60;;
69323;SDS011;56470;47.350;8.718;2023-08-21T05:40:12;8.13;;;5.80;;
69323;SDS011;56470;47.350;8.718;2023-08-21T05:42:38;11.97;;;5.83;;
69323;SDS011;56470;47.350;8.718;2023-08-21T05:45:04;12.10;;;6.43;;
69323;SDS011;56470;47.350;8.718;2023-08-21T05:47:30;9.68;;;6.03;;
69323;SDS011;56470;47.350;8.718;2023-08-21T05:49:55;15.70;;;6.00;;
69323;SDS011;56470;47.350;8.718;2023-08-21T05:52:21;10.67;;;5.20;;
69323;SDS011;56470;47.350;8.718;2023-08-21T05:54:47;10.13;;;6.00;;
69323;SDS011;56470;47.350;8.718;2023-08-21T05:57:12;12.43;;;6.93;;
69323;SDS011;56470;47.350;8.718;2023-08-21T05:59:42;12.50;;;6.10;;
69323;SDS011;56470;47.350;8.718;2023-08-21T06:02:08;11.60;;;5.95;;
69323;SDS011;56470;47.350;8.718;2023-08-21T06:04:34;20.47;;;7.00;;
69323;SDS011;56470;47.350;8.718;2023-08-21T06:06:59;9.73;;;6.43;;
69323;SDS011;56470;47.350;8.718;2023-08-21T06:09:24;13.07;;;6.53;;
69323;SDS011;56470;47.350;8.718;2023-08-21T06:11:50;9.80;;;6.67;;
69323;SDS011;56470;47.350;8.718;2023-08-21T06:14:15;8.87;;;5.70;;
69323;SDS011;56470;47.350;8.718;2023-08-21T06:16:40;8.63;;;5.70;;
69323;SDS011;56470;47.350;8.718;2023-08-21T06:19:06;8.57;;;5.70;;
69323;SDS011;56470;47.350;8.718;2023-08-21T06:21:31;8.33;;;5.60;;
69323;SDS011;56470;47.350;8.718;2023-08-21T06:23:56;10.70;;;6.43;;
69323;SDS011;56470;47.350;8.718;2023-08-21T06:26:22;9.77;;;6.13;;
69323;SDS011;56470;47.350;8.718;2023-08-21T06:28:47;9.33;;;6.00;;
69323;SDS011;56470;47.350;8.718;2023-08-21T06:31:12;9.80;;;6.27;;
69323;SDS011;56470;47.350;8.718;2023-08-21T06:33:38;10.35;;;6.00;;
69323;SDS011;56470;47.350;8.718;2023-08-21T06:36:09;9.13;;;5.47;;
69323;SDS011;56470;47.350;8.718;2023-08-21T06:38:35;9.77;;;6.00;;
69323;SDS011;56470;47.350;8.718;2023-08-21T06:41:00;9.03;;;4.87;;
69323;SDS011;56470;47.350;8.718;2023-08-21T06:43:28;9.30;;;6.00;;
69323;SDS011;56470;47.350;8.718;2023-08-21T06:45:54;11.77;;;6.38;;
69323;SDS011;56470;47.350;8.718;2023-08-21T06:48:19;10.63;;;5.70;;
69323;SDS011;56470;47.350;8.718;2023-08-21T06:50:44;14.17;;;6.27;;
69323;SDS011;56470;47.350;8.718;2023-08-21T06:53:10;10.40;;;5.70;;
69323;SDS011;56470;47.350;8.718;2023-08-21T06:55:35;10.57;;;5.27;;
69323;SDS011;56470;47.350;8.718;2023-08-21T06:58:00;9.18;;;5.78;;
69323;SDS011;56470;47.350;8.718;2023-08-21T07:00:26;10.43;;;6.30;;
69323;SDS011;56470;47.350;8.718;2023-08-21T07:02:51;10.80;;;5.63;;
69323;SDS011;56470;47.350;8.718;2023-08-21T07:05:17;8.60;;;5.43;;
69323;SDS011;56470;47.350;8.718;2023-08-21T07:07:42;15.05;;;6.00;;
69323;SDS011;56470;47.350;8.718;2023-08-21T07:10:08;9.20;;;5.37;;
69323;SDS011;56470;47.350;8.718;2023-08-21T07:12:33;12.20;;;4.82;;
69323;SDS011;56470;47.350;8.718;2023-08-21T07:14:59;10.57;;;5.27;;
69323;SDS011;56470;47.350;8.718;2023-08-21T07:17:24;11.20;;;5.70;;
69323;SDS011;56470;47.350;8.718;2023-08-21T07:19:49;12.07;;;5.63;;
69323;SDS011;56470;47.350;8.718;2023-08-21T07:22:17;12.43;;;6.32;;
69323;SDS011;56470;47.350;8.718;2023-08-21T07:24:43;9.32;;;6.00;;
69323;SDS011;56470;47.350;8.718;2023-08-21T07:27:08;10.70;;;6.47;;
69323;SDS011;56470;47.350;8.718;2023-08-21T07:29:34;10.00;;;6.03;;
69323;SDS011;56470;47.350;8.718;2023-08-21T07:31:59;10.03;;;6.47;;
69323;SDS011;56470;47.350;8.718;2023-08-21T07:34:26;8.55;;;5.30;;
69323;SDS011;56470;47.350;8.718;2023-08-21T07:36:51;8.73;;;5.97;;
69323;SDS011;56470;47.350;8.718;2023-08-21T07:39:17;9.43;;;5.73;;
69323;SDS011;56470;47.350;8.718;2023-08-21T07:41:42;12.63;;;6.17;;
69323;SDS011;56470;47.350;8.718;2023-08-21T07:44:07;14.83;;;6.20;;
69323;SDS011;56470;47.350;8.718;2023-08-21T07:46:33;10.67;;;6.13;;
69323;SDS011;56470;47.350;8.718;2023-08-21T07:48:58;11.23;;;5.90;;
69323;SDS011;56470;47.350;8.718;2023-08-21T07:51:24;12.00;;;6.93;;
69323;SDS011;56470;47.350;8.718;2023-08-21T07:53:49;9.73;;;6.53;;
69323;SDS011;56470;47.350;8.718;2023-08-21T07:56:14;10.70;;;6.87;;
69323;SDS011;56470;47.350;8.718;2023-08-21T07:58:40;11.03;;;6.57;;
69323;SDS011;56470;47.350;8.718;2023-08-21T08:01:05;11.47;;;6.97;;
69323;SDS011;56470;47.350;8.718;2023-08-21T08:03:30;10.00;;;7.10;;
69323;SDS011;56470;47.350;8.718;2023-08-21T08:05:56;9.95;;;6.70;;
69323;SDS011;56470;47.350;8.718;2023-08-21T08:08:22;12.50;;;8.00;;
69323;SDS011;56470;47.350;8.718;2023-08-21T08:10:48;12.07;;;7.90;;
69323;SDS011;56470;47.350;8.718;2023-08-21T08:13:14;11.77;;;6.93;;
69323;SDS011;56470;47.350;8.718;2023-08-21T08:15:39;10.63;;;7.57;;
69323;SDS011;56470;47.350;8.718;2023-08-21T08:18:06;11.30;;;6.80;;
69323;SDS011;56470;47.350;8.718;2023-08-21T08:20:36;13.52;;;7.70;;
69323;SDS011;56470;47.350;8.718;2023-08-21T08:23:01;9.37;;;7.23;;
69323;SDS011;56470;47.350;8.718;2023-08-21T08:25:27;11.47;;;7.60;;
69323;SDS011;56470;47.350;8.718;2023-08-21T08:27:52;11.07;;;6.70;;
69323;SDS011;56470;47.350;8.718;2023-08-21T08:30:17;15.30;;;7.20;;
69323;SDS011;56470;47.350;8.718;2023-08-21T08:32:43;10.43;;;7.37;;
69323;SDS011;56470;47.350;8.718;2023-08-21T08:35:14;7.95;;;5.70;;
69323;SDS011;56470;47.350;8.718;2023-08-21T08:37:40;11.10;;;8.32;;
69323;SDS011;56470;47.350;8.718;2023-08-21T08:40:06;12.37;;;6.40;;
69323;SDS011;56470;47.350;8.718;2023-08-21T08:42:34;10.70;;;6.68;;
69323;SDS011;56470;47.350;8.718;2023-08-21T08:45:34;10.55;;;7.40;;
69323;SDS011;56470;47.350;8.718;2023-08-21T08:48:00;9.70;;;6.35;;
69323;SDS011;56470;47.350;8.718;2023-08-21T08:50:28;11.05;;;6.20;;
69323;SDS011;56470;47.350;8.718;2023-08-21T08:52:55;12.23;;;6.50;;
69323;SDS011;56470;47.350;8.718;2023-08-21T08:55:22;13.52;;;7.85;;
69323;SDS011;56470;47.350;8.718;2023-08-21T08:57:48;12.68;;;7.38;;
69323;SDS011;56470;47.350;8.718;2023-08-21T09:00:14;10.85;;;6.68;;
69323;SDS011;56470;47.350;8.718;2023-08-21T09:02:41;8.47;;;6.63;;
69323;SDS011;56470;47.350;8.718;2023-08-21T09:05:16;13.38;;;6.60;;
69323;SDS011;56470;47.350;8.718;2023-08-21T09:07:44;12.85;;;7.10;;
69323;SDS011;56470;47.350;8.718;2023-08-21T09:10:12;10.13;;;7.33;;
69323;SDS011;56470;47.350;8.718;2023-08-21T09:12:40;11.00;;;6.60;;
69323;SDS011;56470;47.350;8.718;2023-08-21T09:15:08;11.00;;;6.60;;
69323;SDS011;56470;47.350;8.718;2023-08-21T09:17:33;11.63;;;7.07;;
69323;SDS011;56470;47.350;8.718;2023-08-21T09:20:06;12.00;;;7.55;;
69323;SDS011;56470;47.350;8.718;2023-08-21T09:22:37;11.70;;;7.45;;
69323;SDS011;56470;47.350;8.718;2023-08-21T09:25:17;11.43;;;7.50;;
69323;SDS011;56470;47.350;8.718;2023-08-21T09:30:59;9.00;;;6.72;;
69323;SDS011;56470;47.350;8.718;2023-08-21T09:33:28;11.23;;;7.40;;
69323;SDS011;56470;47.350;8.718;2023-08-21T09:35:54;10.73;;;6.33;;
69323;SDS011;56470;47.350;8.718;2023-08-21T09:38:38;12.63;;;7.60;;
69323;SDS011;56470;47.350;8.718;2023-08-21T09:41:05;10.77;;;6.55;;
69323;SDS011;56470;47.350;8.718;2023-08-21T09:43:31;13.32;;;7.13;;
69323;SDS011;56470;47.350;8.718;2023-08-21T09:45:56;11.73;;;6.23;;
69323;SDS011;56470;47.350;8.718;2023-08-21T09:48:24;11.68;;;6.75;;
69323;SDS011;56470;47.350;8.718;2023-08-21T09:50:54;12.95;;;7.05;;
69323;SDS011;56470;47.350;8.718;2023-08-21T09:53:21;10.77;;;7.07;;
69323;SDS011;56470;47.350;8.718;2023-08-21T09:55:53;11.02;;;6.32;;
69323;SDS011;56470;47.350;8.718;2023-08-21T09:58:21;10.45;;;6.80;;
69323;SDS011;56470;47.350;8.718;2023-08-21T10:00:50;9.88;;;7.03;;
69323;SDS011;56470;47.350;8.718;2023-08-21T10:03:22;12.57;;;7.22;;
69323;SDS011;56470;47.350;8.718;2023-08-21T10:26:24;11.57;;;8.00;;
69323;SDS011;56470;47.350;8.718;2023-08-21T11:40:30;8.57;;;4.97;;
69323;SDS011;56470;47.350;8.718;2023-08-21T11:43:02;10.25;;;4.97;;
69323;SDS011;56470;47.350;8.718;2023-08-21T11:45:29;8.40;;;5.63;;
69323;SDS011;56470;47.350;8.718;2023-08-21T11:47:57;14.53;;;6.47;;
69323;SDS011;56470;47.350;8.718;2023-08-21T11:50:23;9.63;;;4.82;;
69323;SDS011;56470;47.350;8.718;2023-08-21T11:52:52;8.60;;;5.70;;
69323;SDS011;56470;47.350;8.718;2023-08-21T11:55:18;7.38;;;5.57;;
69323;SDS011;56470;47.350;8.718;2023-08-21T11:57:48;9.00;;;5.65;;
69323;SDS011;56470;47.350;8.718;2023-08-21T12:00:14;9.75;;;5.63;;
69323;SDS011;56470;47.350;8.718;2023-08-21T12:02:43;9.03;;;5.00;;
69323;SDS011;56470;47.350;8.718;2023-08-21T12:05:14;7.63;;;5.10;;
69323;SDS011;56470;47.350;8.718;2023-08-21T12:07:39;8.73;;;5.32;;
69323;SDS011;56470;47.350;8.718;2023-08-21T12:10:05;9.10;;;5.53;;
69323;SDS011;56470;47.350;8.718;2023-08-21T12:12:31;9.70;;;5.60;;
69323;SDS011;56470;47.350;8.718;2023-08-21T12:14:56;9.25;;;5.28;;
69323;SDS011;56470;47.350;8.718;2023-08-21T12:17:22;7.60;;;4.77;;
69323;SDS011;56470;47.350;8.718;2023-08-21T12:19:47;8.55;;;5.28;;
69323;SDS011;56470;47.350;8.718;2023-08-21T12:22:13;9.17;;;5.17;;
69323;SDS011;56470;47.350;8.718;2023-08-21T12:24:40;11.80;;;5.65;;
69323;SDS011;56470;47.350;8.718;2023-08-21T12:27:15;8.23;;;6.03;;
69323;SDS011;56470;47.350;8.718;2023-08-21T12:29:42;10.23;;;6.15;;
69323;SDS011;56470;47.350;8.718;2023-08-21T12:32:10;8.07;;;5.85;;
69323;SDS011;56470;47.350;8.718;2023-08-21T12:34:46;9.27;;;5.93;;
69323;SDS011;56470;47.350;8.718;2023-08-21T12:37:17;8.73;;;5.22;;
69323;SDS011;56470;47.350;8.718;2023-08-21T12:39:42;10.30;;;6.03;;
69323;SDS011;56470;47.350;8.718;2023-08-21T12:42:08;7.87;;;5.63;;
69323;SDS011;56470;47.350;8.718;2023-08-21T12:44:33;8.10;;;5.72;;
69323;SDS011;56470;47.350;8.718;2023-08-21T12:46:59;9.23;;;6.10;;
69323;SDS011;56470;47.350;8.718;2023-08-21T12:49:25;10.55;;;6.18;;
69323;SDS011;56470;47.350;8.718;2023-08-21T12:51:50;10.27;;;6.73;;
69323;SDS011;56470;47.350;8.718;2023-08-21T12:54:15;8.33;;;5.50;;
69323;SDS011;56470;47.350;8.718;2023-08-21T12:56:41;9.57;;;6.17;;
69323;SDS011;56470;47.350;8.718;2023-08-21T12:59:06;10.73;;;6.40;;
69323;SDS011;56470;47.350;8.718;2023-08-21T13:01:32;8.20;;;5.30;;
69323;SDS011;56470;47.350;8.718;2023-08-21T13:03:59;8.63;;;5.72;;
69323;SDS011;56470;47.350;8.718;2023-08-21T13:06:26;12.47;;;5.50;;
69323;SDS011;56470;47.350;8.718;2023-08-21T13:08:52;8.10;;;6.05;;
69323;SDS011;56470;47.350;8.718;2023-08-21T13:11:20;9.02;;;5.95;;
69323;SDS011;56470;47.350;8.718;2023-08-21T13:13:48;10.52;;;6.25;;
69323;SDS011;56470;47.350;8.718;2023-08-21T13:16:13;10.88;;;6.07;;
69323;SDS011;56470;47.350;8.718;2023-08-21T13:18:42;8.13;;;6.80;;
69323;SDS011;56470;47.350;8.718;2023-08-21T13:21:13;8.82;;;6.05;;
69323;SDS011;56470;47.350;8.718;2023-08-21T13:23:43;9.68;;;5.63;;
69323;SDS011;56470;47.350;8.718;2023-08-21T13:26:35;10.32;;;6.32;;
69323;SDS011;56470;47.350;8.718;2023-08-21T13:29:02;8.57;;;6.10;;
69323;SDS011;56470;47.350;8.718;2023-08-21T13:31:42;11.63;;;7.47;;
69323;SDS011;56470;47.350;8.718;2023-08-21T13:34:09;12.27;;;5.53;;
69323;SDS011;56470;47.350;8.718;2023-08-21T13:36:53;9.93;;;6.97;;
69323;SDS011;56470;47.350;8.718;2023-08-21T13:39:31;9.13;;;6.17;;
69323;SDS011;56470;47.350;8.718;2023-08-21T13:42:01;8.98;;;6.53;;
69323;SDS011;56470;47.350;8.718;2023-08-21T13:44:31;11.43;;;6.22;;
69323;SDS011;56470;47.350;8.718;2023-08-21T13:47:02;12.07;;;7.03;;
69323;SDS011;56470;47.350;8.718;2023-08-21T13:49:31;11.27;;;7.07;;
69323;SDS011;56470;47.350;8.718;2023-08-21T13:52:03;11.63;;;5.93;;
69323;SDS011;56470;47.350;8.718;2023-08-21T13:54:29;9.13;;;6.05;;
69323;SDS011;56470;47.350;8.718;2023-08-21T13:56:54;12.93;;;6.70;;
69323;SDS011;56470;47.350;8.718;2023-08-21T13:59:20;10.48;;;6.18;;
69323;SDS011;56470;47.350;8.718;2023-08-21T14:01:45;10.20;;;6.33;;
69323;SDS011;56470;47.350;8.718;2023-08-21T14:04:14;9.98;;;6.40;;
69323;SDS011;56470;47.350;8.718;2023-08-21T14:06:40;11.37;;;6.30;;
69323;SDS011;56470;47.350;8.718;2023-08-21T14:09:06;8.82;;;5.53;;
69323;SDS011;56470;47.350;8.718;2023-08-21T14:11:32;8.40;;;6.07;;
69323;SDS011;56470;47.350;8.718;2023-08-21T14:13:58;10.23;;;5.90;;
69323;SDS011;56470;47.350;8.718;2023-08-21T14:16:24;11.27;;;5.60;;
69323;SDS011;56470;47.350;8.718;2023-08-21T14:18:50;9.07;;;5.77;;
69323;SDS011;56470;47.350;8.718;2023-08-21T14:21:22;9.95;;;5.55;;
69323;SDS011;56470;47.350;8.718;2023-08-21T14:23:51;9.02;;;6.18;;
69323;SDS011;56470;47.350;8.718;2023-08-21T14:26:23;8.95;;;5.07;;
69323;SDS011;56470;47.350;8.718;2023-08-21T14:28:50;11.45;;;5.75;;
69323;SDS011;56470;47.350;8.718;2023-08-21T14:31:42;8.97;;;5.23;;
69323;SDS011;56470;47.350;8.718;2023-08-21T14:34:38;10.23;;;5.50;;
69323;SDS011;56470;47.350;8.718;2023-08-21T14:37:12;8.85;;;5.65;;
69323;SDS011;56470;47.350;8.718;2023-08-21T14:40:39;9.23;;;5.70;;
69323;SDS011;56470;47.350;8.718;2023-08-21T14:43:25;9.30;;;5.30;;
69323;SDS011;56470;47.350;8.718;2023-08-21T14:46:02;8.50;;;5.07;;
69323;SDS011;56470;47.350;8.718;2023-08-21T14:48:31;9.25;;;5.45;;
69323;SDS011;56470;47.350;8.718;2023-08-21T14:50:59;8.60;;;5.75;;
69323;SDS011;56470;47.350;8.718;2023-08-21T14:53:25;8.27;;;5.53;;
69323;SDS011;56470;47.350;8.718;2023-08-21T14:55:55;8.07;;;5.60;;
69323;SDS011;56470;47.350;8.718;2023-08-21T14:58:22;8.80;;;5.03;;
69323;SDS011;56470;47.350;8.718;2023-08-21T15:00:49;10.80;;;5.47;;
69323;SDS011;56470;47.350;8.718;2023-08-21T15:06:48;8.73;;;5.23;;
69323;SDS011;56470;47.350;8.718;2023-08-21T15:09:13;8.20;;;4.82;;
69323;SDS011;56470;47.350;8.718;2023-08-21T15:11:39;9.93;;;5.30;;
69323;SDS011;56470;47.350;8.718;2023-08-21T15:14:09;10.47;;;5.83;;
69323;SDS011;56470;47.350;8.718;2023-08-21T15:16:38;7.65;;;5.18;;
69323;SDS011;56470;47.350;8.718;2023-08-21T15:19:24;11.68;;;7.05;;
69323;SDS011;56470;47.350;8.718;2023-08-21T15:21:52;9.52;;;5.85;;
69323;SDS011;56470;47.350;8.718;2023-08-21T15:24:18;10.15;;;5.43;;
69323;SDS011;56470;47.350;8.718;2023-08-21T15:26:51;10.73;;;6.10;;
69323;SDS011;56470;47.350;8.718;2023-08-21T15:29:20;9.02;;;6.00;;
69323;SDS011;56470;47.350;8.718;2023-08-21T15:31:50;10.05;;;5.32;;
69323;SDS011;56470;47.350;8.718;2023-08-21T15:34:18;8.68;;;4.72;;
69323;SDS011;56470;47.350;8.718;2023-08-21T15:36:50;7.70;;;5.82;;
69323;SDS011;56470;47.350;8.718;2023-08-21T15:39:17;9.17;;;5.27;;
69323;SDS011;56470;47.350;8.718;2023-08-21T15:41:44;11.18;;;7.90;;
69323;SDS011;56470;47.350;8.718;2023-08-21T15:44:10;11.82;;;6.15;;
69323;SDS011;56470;47.350;8.718;2023-08-21T15:46:35;8.53;;;5.60;;
69323;SDS011;56470;47.350;8.718;2023-08-21T15:49:03;9.50;;;4.85;;
69323;SDS011;56470;47.350;8.718;2023-08-21T15:51:51;10.05;;;5.82;;
69323;SDS011;56470;47.350;8.718;2023-08-21T15:54:19;8.93;;;5.27;;
69323;SDS011;56470;47.350;8.718;2023-08-21T15:56:45;9.15;;;5.22;;
69323;SDS011;56470;47.350;8.718;2023-08-21T15:59:11;8.37;;;4.73;;
69323;SDS011;56470;47.350;8.718;2023-08-21T16:01:41;8.82;;;6.15;;
69323;SDS011;56470;47.350;8.718;2023-08-21T16:04:10;8.50;;;5.75;;
69323;SDS011;56470;47.350;8.718;2023-08-21T16:06:48;9.07;;;5.97;;
69323;SDS011;56470;47.350;8.718;2023-08-21T16:12:29;8.53;;;4.33;;
69323;SDS011;56470;47.350;8.718;2023-08-21T16:15:04;7.95;;;4.43;;
69323;SDS011;56470;47.350;8.718;2023-08-21T16:17:34;9.95;;;4.18;;
69323;SDS011;56470;47.350;8.718;2023-08-21T16:20:05;6.93;;;3.72;;
69323;SDS011;56470;47.350;8.718;2023-08-21T16:22:36;8.25;;;4.07;;
69323;SDS011;56470;47.350;8.718;2023-08-21T16:25:05;6.40;;;3.97;;
69323;SDS011;56470;47.350;8.718;2023-08-21T16:27:33;5.57;;;2.88;;